Aegean Navigator — SWBI — position and weather

sailwx.info

Track history (hours):
 
Tides and Currents Weather Stations Pressure Air Temp Water Temp Dewpoint Dewpoint Depression Visibility Wind Speed Wind Dir Waves Ship Positions

Aegean Navigator

Last reported at 2014-Jul-25 20:16 UTC. Time now 2014-Jul-25 20:42 UTC.
Position N 52°03' E 003°32'.

Length 274 m; draft 13.3 m.

Type: Ship. MMSI: 240634000.

Date/timePositionNaut miles runAvg speedWind from/ knotsBaromVisibWave heightAir tempDewpointWater temp
2014-Jul-25 20:16N 52°03' E 003°32'913.0
2014-Jul-25 19:33N 52°02' E 003°48'1111.4
2014-Jul-25 18:33N 51°59' E 004°05'4 2.9
2014-Jul-25 17:19N 51°57' E 004°10'0 0.0
2014-Jul-25 16:31N 51°57' E 004°10'0 0.0
2014-Jul-25 15:31N 51°57' E 004°10'0 0.0
2014-Jul-25 14:28N 51°57' E 004°10'0 0.0
2014-Jul-25 13:31N 51°57' E 004°10'0 0.0
2014-Jul-25 12:31N 51°57' E 004°10'0 0.0
2014-Jul-25 11:31N 51°57' E 004°10'0 0.0
2014-Jul-25 10:19N 51°57' E 004°10'0 0.1
2014-Jul-25 09:31N 51°57' E 004°10'0 0.0
2014-Jul-25 08:22N 51°57' E 004°10'0 0.0
2014-Jul-25 07:31N 51°57' E 004°10'0 0.0
2014-Jul-25 06:31N 51°57' E 004°10'0 0.0
2014-Jul-25 05:31N 51°57' E 004°10'0 0.0
2014-Jul-25 04:28N 51°57' E 004°10'0 0.0
2014-Jul-25 03:25N 51°57' E 004°10'0 0.0
2014-Jul-25 02:28N 51°57' E 004°10'0 0.0
2014-Jul-25 01:28N 51°57' E 004°10'0 0.0
2014-Jul-25 00:31N 51°57' E 004°10'0 0.0
2014-Jul-24 23:31N 51°57' E 004°10'0 0.0
2014-Jul-24 22:31N 51°57' E 004°10'0 0.0
2014-Jul-24 21:25N 51°57' E 004°10'0 0.0
2014-Jul-24 20:31N 51°57' E 004°10'0 0.1
2014-Jul-24 19:31N 51°57' E 004°10'0 0.0
2014-Jul-24 18:31N 51°57' E 004°10'2 1.7
2014-Jul-24 17:33N 51°58' E 004°08'6 6.2
2014-Jul-24 16:33N 52°00' E 003°58'6 6.0
2014-Jul-24 15:33N 52°01' E 003°49'9 8.8
2014-Jul-24 14:33N 52°00' E 003°35'1212.3
2014-Jul-24 13:33N 51°59' E 003°15'1 1.4
2014-Jul-24 12:33N 52°00' E 003°13'0 0.1
2014-Jul-24 11:33N 52°00' E 003°13'0 0.3
2014-Jul-24 10:33N 52°00' E 003°13'6 6.2
2014-Jul-24 09:33N 52°02' E 003°23'1010.4
2014-Jul-24 08:33N 52°01' E 003°39'1111.2
2014-Jul-24 07:33N 51°59' E 003°22'6 6.1
2014-Jul-24 06:33N 52°00' E 003°12'0 0.1
2014-Jul-24 05:33N 52°00' E 003°12'5 5.4
2014-Jul-24 04:33N 51°57' E 003°04'1111.1
2014-Jul-24 03:33N 51°52' E 002°49'1211.6
2014-Jul-24 02:33N 51°44' E 002°34'1212.0
2014-Jul-24 01:33N 51°35' E 002°22'1212.4
2014-Jul-24 00:33N 51°26' E 002°09'1312.5
2014-Jul-23 23:33N 51°17' E 001°55'1313.2
2014-Jul-23 22:33N 51°07' E 001°42'1413.9
2014-Jul-23 21:33N 50°56' E 001°28'1414.1
2014-Jul-23 20:33N 50°42' E 001°22'1312.7
2014-Jul-23 19:34N 50°33' E 001°07'1313.2
2014-Jul-23 18:33N 50°28' E 000°49'1613.2
2014-Jul-23 17:19N 50°23' E 000°24'1013.1
2014-Jul-23 16:33N 50°20' E 000°09'7910.6
2014-Jul-23 09:07N 49°50' W 001°45'5 9.1
2014-Jul-23 08:33N 49°52' W 001°52'12412.0
2014-Jul-22 22:13N 49°05' W 004°49'  
Track history (hours):
 
Tides and Currents Weather Stations Pressure Air Temp Water Temp Dewpoint Dewpoint Depression Visibility Wind Speed Wind Dir Waves Ship Positions

Aegean Navigator

Last reported at 2014-Jul-25 20:16 UTC. Time now 2014-Jul-25 20:42 UTC.
Position N 52°03' E 003°32'.

Length 274 m; draft 13.3 m.

Type: Ship. MMSI: 240634000.

Date/timePositionNaut miles runAvg speedWind from/ knotsBaromVisibWave heightAir tempDewpointWater temp
2014-Jul-25 20:16N 52°03' E 003°32'913.0
2014-Jul-25 19:33N 52°02' E 003°48'1111.4
2014-Jul-25 18:33N 51°59' E 004°05'4 2.9
2014-Jul-25 17:19N 51°57' E 004°10'0 0.0
2014-Jul-25 16:31N 51°57' E 004°10'0 0.0
2014-Jul-25 15:31N 51°57' E 004°10'0 0.0
2014-Jul-25 14:28N 51°57' E 004°10'0 0.0
2014-Jul-25 13:31N 51°57' E 004°10'0 0.0
2014-Jul-25 12:31N 51°57' E 004°10'0 0.0
2014-Jul-25 11:31N 51°57' E 004°10'0 0.0
2014-Jul-25 10:19N 51°57' E 004°10'0 0.1
2014-Jul-25 09:31N 51°57' E 004°10'0 0.0
2014-Jul-25 08:22N 51°57' E 004°10'0 0.0
2014-Jul-25 07:31N 51°57' E 004°10'0 0.0
2014-Jul-25 06:31N 51°57' E 004°10'0 0.0
2014-Jul-25 05:31N 51°57' E 004°10'0 0.0
2014-Jul-25 04:28N 51°57' E 004°10'0 0.0
2014-Jul-25 03:25N 51°57' E 004°10'0 0.0
2014-Jul-25 02:28N 51°57' E 004°10'0 0.0
2014-Jul-25 01:28N 51°57' E 004°10'0 0.0
2014-Jul-25 00:31N 51°57' E 004°10'0 0.0
2014-Jul-24 23:31N 51°57' E 004°10'0 0.0
2014-Jul-24 22:31N 51°57' E 004°10'0 0.0
2014-Jul-24 21:25N 51°57' E 004°10'0 0.0
2014-Jul-24 20:31N 51°57' E 004°10'0 0.1
2014-Jul-24 19:31N 51°57' E 004°10'0 0.0
2014-Jul-24 18:31N 51°57' E 004°10'2 1.7
2014-Jul-24 17:33N 51°58' E 004°08'6 6.2
2014-Jul-24 16:33N 52°00' E 003°58'6 6.0
2014-Jul-24 15:33N 52°01' E 003°49'9 8.8
2014-Jul-24 14:33N 52°00' E 003°35'1212.3
2014-Jul-24 13:33N 51°59' E 003°15'1 1.4
2014-Jul-24 12:33N 52°00' E 003°13'0 0.1
2014-Jul-24 11:33N 52°00' E 003°13'0 0.3
2014-Jul-24 10:33N 52°00' E 003°13'6 6.2
2014-Jul-24 09:33N 52°02' E 003°23'1010.4
2014-Jul-24 08:33N 52°01' E 003°39'1111.2
2014-Jul-24 07:33N 51°59' E 003°22'6 6.1
2014-Jul-24 06:33N 52°00' E 003°12'0 0.1
2014-Jul-24 05:33N 52°00' E 003°12'5 5.4
2014-Jul-24 04:33N 51°57' E 003°04'1111.1
2014-Jul-24 03:33N 51°52' E 002°49'1211.6
2014-Jul-24 02:33N 51°44' E 002°34'1212.0
2014-Jul-24 01:33N 51°35' E 002°22'1212.4
2014-Jul-24 00:33N 51°26' E 002°09'1312.5
2014-Jul-23 23:33N 51°17' E 001°55'1313.2
2014-Jul-23 22:33N 51°07' E 001°42'1413.9
2014-Jul-23 21:33N 50°56' E 001°28'1414.1
2014-Jul-23 20:33N 50°42' E 001°22'1312.7
2014-Jul-23 19:34N 50°33' E 001°07'1313.2
2014-Jul-23 18:33N 50°28' E 000°49'1613.2
2014-Jul-23 17:19N 50°23' E 000°24'1013.1
2014-Jul-23 16:33N 50°20' E 000°09'7910.6
2014-Jul-23 09:07N 49°50' W 001°45'5 9.1
2014-Jul-23 08:33N 49°52' W 001°52'12412.0
2014-Jul-22 22:13N 49°05' W 004°49'  

Dump ship's entire track history